sensor_id;sensor_type;location;lat;lon;timestamp;temperature;humidity
18141;DHT22;9196;49.194;12.526;2022-09-27T00:00:39;12.30;99.90
18141;DHT22;9196;49.194;12.526;2022-09-27T00:03:06;12.30;99.90
18141;DHT22;9196;49.194;12.526;2022-09-27T00:05:33;12.40;99.90
18141;DHT22;9196;49.194;12.526;2022-09-27T00:08:00;12.40;99.90
18141;DHT22;9196;49.194;12.526;2022-09-27T00:10:27;12.40;99.90
18141;DHT22;9196;49.194;12.526;2022-09-27T00:12:54;12.40;99.90
18141;DHT22;9196;49.194;12.526;2022-09-27T00:15:21;12.40;99.90
18141;DHT22;9196;49.194;12.526;2022-09-27T00:17:49;12.40;99.90
18141;DHT22;9196;49.194;12.526;2022-09-27T00:20:17;12.40;99.90
18141;DHT22;9196;49.194;12.526;2022-09-27T00:22:44;12.40;99.90
18141;DHT22;9196;49.194;12.526;2022-09-27T00:25:12;12.30;99.90
18141;DHT22;9196;49.194;12.526;2022-09-27T00:27:39;12.30;99.90
18141;DHT22;9196;49.194;12.526;2022-09-27T00:30:07;12.30;99.90
18141;DHT22;9196;49.194;12.526;2022-09-27T00:32:34;12.20;99.90
18141;DHT22;9196;49.194;12.526;2022-09-27T00:35:02;12.20;99.90
18141;DHT22;9196;49.194;12.526;2022-09-27T00:37:29;12.20;99.90
18141;DHT22;9196;49.194;12.526;2022-09-27T00:39:56;12.20;99.90
18141;DHT22;9196;49.194;12.526;2022-09-27T00:42:23;12.20;99.90
18141;DHT22;9196;49.194;12.526;2022-09-27T00:45:08;12.20;99.90
18141;DHT22;9196;49.194;12.526;2022-09-27T00:47:42;12.30;99.90
18141;DHT22;9196;49.194;12.526;2022-09-27T00:50:21;12.20;99.90
18141;DHT22;9196;49.194;12.526;2022-09-27T00:52:58;12.20;99.90
18141;DHT22;9196;49.194;12.526;2022-09-27T00:55:29;12.20;99.90
18141;DHT22;9196;49.194;12.526;2022-09-27T00:57:58;12.20;99.90
18141;DHT22;9196;49.194;12.526;2022-09-27T01:00:26;12.20;99.90
18141;DHT22;9196;49.194;12.526;2022-09-27T01:02:54;12.20;99.90
18141;DHT22;9196;49.194;12.526;2022-09-27T01:05:26;12.20;99.90
18141;DHT22;9196;49.194;12.526;2022-09-27T01:07:53;12.10;99.90
18141;DHT22;9196;49.194;12.526;2022-09-27T01:10:21;12.10;99.90
18141;DHT22;9196;49.194;12.526;2022-09-27T01:12:57;12.10;99.90
18141;DHT22;9196;49.194;12.526;2022-09-27T01:15:35;12.10;99.90
18141;DHT22;9196;49.194;12.526;2022-09-27T01:18:18;12.10;99.90
18141;DHT22;9196;49.194;12.526;2022-09-27T01:21:23;12.20;99.90
18141;DHT22;9196;49.194;12.526;2022-09-27T01:24:28;12.20;99.90
18141;DHT22;9196;49.194;12.526;2022-09-27T01:30:22;12.20;99.90
18141;DHT22;9196;49.194;12.526;2022-09-27T01:32:57;12.20;99.90
18141;DHT22;9196;49.194;12.526;2022-09-27T01:35:33;12.20;99.90
18141;DHT22;9196;49.194;12.526;2022-09-27T01:38:09;12.20;99.90
18141;DHT22;9196;49.194;12.526;2022-09-27T01:40:40;12.10;99.90
18141;DHT22;9196;49.194;12.526;2022-09-27T01:43:12;12.10;99.90
18141;DHT22;9196;49.194;12.526;2022-09-27T01:45:43;12.00;99.90
18141;DHT22;9196;49.194;12.526;2022-09-27T01:48:17;12.10;99.90
18141;DHT22;9196;49.194;12.526;2022-09-27T01:50:50;12.00;99.90
18141;DHT22;9196;49.194;12.526;2022-09-27T01:53:20;12.00;99.90
18141;DHT22;9196;49.194;12.526;2022-09-27T01:55:50;11.90;99.90
18141;DHT22;9196;49.194;12.526;2022-09-27T01:58:21;11.80;99.90
18141;DHT22;9196;49.194;12.526;2022-09-27T02:00:53;11.80;99.90
18141;DHT22;9196;49.194;12.526;2022-09-27T02:03:24;11.80;99.90
18141;DHT22;9196;49.194;12.526;2022-09-27T02:05:54;11.70;99.90
18141;DHT22;9196;49.194;12.526;2022-09-27T02:08:25;11.70;99.90
18141;DHT22;9196;49.194;12.526;2022-09-27T02:10:55;11.60;99.90
18141;DHT22;9196;49.194;12.526;2022-09-27T02:13:28;11.60;99.90
18141;DHT22;9196;49.194;12.526;2022-09-27T02:16:05;11.60;99.90
18141;DHT22;9196;49.194;12.526;2022-09-27T02:18:35;11.50;99.90
18141;DHT22;9196;49.194;12.526;2022-09-27T02:21:06;11.50;99.90
18141;DHT22;9196;49.194;12.526;2022-09-27T02:23:38;11.40;99.90
18141;DHT22;9196;49.194;12.526;2022-09-27T02:26:11;11.40;99.90
18141;DHT22;9196;49.194;12.526;2022-09-27T02:28:42;11.40;99.90
18141;DHT22;9196;49.194;12.526;2022-09-27T02:31:11;11.30;99.90
18141;DHT22;9196;49.194;12.526;2022-09-27T02:33:41;11.30;99.90
18141;DHT22;9196;49.194;12.526;2022-09-27T02:36:10;11.20;99.90
18141;DHT22;9196;49.194;12.526;2022-09-27T02:38:38;11.20;99.90
18141;DHT22;9196;49.194;12.526;2022-09-27T02:41:12;11.20;99.90
18141;DHT22;9196;49.194;12.526;2022-09-27T02:43:39;11.20;99.90
18141;DHT22;9196;49.194;12.526;2022-09-27T02:46:21;11.10;99.90
18141;DHT22;9196;49.194;12.526;2022-09-27T02:48:57;11.10;99.90
18141;DHT22;9196;49.194;12.526;2022-09-27T02:51:37;11.10;99.90
18141;DHT22;9196;49.194;12.526;2022-09-27T02:54:18;11.10;99.90
18141;DHT22;9196;49.194;12.526;2022-09-27T02:56:57;11.00;99.90
18141;DHT22;9196;49.194;12.526;2022-09-27T02:59:31;11.10;99.90
18141;DHT22;9196;49.194;12.526;2022-09-27T03:02:08;11.00;99.90
18141;DHT22;9196;49.194;12.526;2022-09-27T03:04:41;11.00;99.90
18141;DHT22;9196;49.194;12.526;2022-09-27T03:07:10;11.00;99.90
18141;DHT22;9196;49.194;12.526;2022-09-27T03:09:43;11.10;99.90
18141;DHT22;9196;49.194;12.526;2022-09-27T03:12:11;11.00;99.90
18141;DHT22;9196;49.194;12.526;2022-09-27T03:14:37;11.00;99.90
18141;DHT22;9196;49.194;12.526;2022-09-27T03:17:06;11.00;99.90
18141;DHT22;9196;49.194;12.526;2022-09-27T03:19:32;10.90;99.90
18141;DHT22;9196;49.194;12.526;2022-09-27T03:21:59;10.90;99.90
18141;DHT22;9196;49.194;12.526;2022-09-27T03:24:26;10.90;99.90
18141;DHT22;9196;49.194;12.526;2022-09-27T03:26:53;11.00;99.90
18141;DHT22;9196;49.194;12.526;2022-09-27T03:29:19;10.90;99.90
18141;DHT22;9196;49.194;12.526;2022-09-27T03:31:46;10.80;99.90
18141;DHT22;9196;49.194;12.526;2022-09-27T03:34:14;10.80;99.90
18141;DHT22;9196;49.194;12.526;2022-09-27T03:36:41;10.70;99.90
18141;DHT22;9196;49.194;12.526;2022-09-27T03:39:08;10.70;99.90
18141;DHT22;9196;49.194;12.526;2022-09-27T03:41:34;10.70;99.90
18141;DHT22;9196;49.194;12.526;2022-09-27T03:44:02;10.70;99.90
18141;DHT22;9196;49.194;12.526;2022-09-27T03:46:29;10.60;99.90
18141;DHT22;9196;49.194;12.526;2022-09-27T03:48:56;10.70;99.90
18141;DHT22;9196;49.194;12.526;2022-09-27T03:51:24;10.60;99.90
18141;DHT22;9196;49.194;12.526;2022-09-27T03:53:50;10.60;99.90
18141;DHT22;9196;49.194;12.526;2022-09-27T03:56:17;10.60;99.90
18141;DHT22;9196;49.194;12.526;2022-09-27T03:58:44;10.60;99.90
18141;DHT22;9196;49.194;12.526;2022-09-27T04:01:11;10.60;99.90
18141;DHT22;9196;49.194;12.526;2022-09-27T04:03:38;10.60;99.90
18141;DHT22;9196;49.194;12.526;2022-09-27T04:06:05;10.60;99.90
18141;DHT22;9196;49.194;12.526;2022-09-27T04:08:33;10.60;99.90
18141;DHT22;9196;49.194;12.526;2022-09-27T04:11:01;10.60;99.90
18141;DHT22;9196;49.194;12.526;2022-09-27T04:13:28;10.60;99.90
18141;DHT22;9196;49.194;12.526;2022-09-27T04:15:54;10.50;99.90
18141;DHT22;9196;49.194;12.526;2022-09-27T04:18:21;10.50;99.90
18141;DHT22;9196;49.194;12.526;2022-09-27T04:20:48;10.60;99.90
18141;DHT22;9196;49.194;12.526;2022-09-27T04:23:15;10.50;99.90
18141;DHT22;9196;49.194;12.526;2022-09-27T04:25:43;10.60;99.90
18141;DHT22;9196;49.194;12.526;2022-09-27T04:28:09;10.50;99.90
18141;DHT22;9196;49.194;12.526;2022-09-27T04:30:37;10.50;99.90
18141;DHT22;9196;49.194;12.526;2022-09-27T04:33:04;10.50;99.90
18141;DHT22;9196;49.194;12.526;2022-09-27T04:35:30;10.50;99.90
18141;DHT22;9196;49.194;12.526;2022-09-27T04:38:15;10.50;99.90
18141;DHT22;9196;49.194;12.526;2022-09-27T04:40:46;10.50;99.90
18141;DHT22;9196;49.194;12.526;2022-09-27T04:43:13;10.50;99.90
18141;DHT22;9196;49.194;12.526;2022-09-27T04:45:40;10.50;99.90
18141;DHT22;9196;49.194;12.526;2022-09-27T04:48:08;10.50;99.90
18141;DHT22;9196;49.194;12.526;2022-09-27T04:50:35;10.50;99.90
18141;DHT22;9196;49.194;12.526;2022-09-27T04:53:02;10.50;99.90
18141;DHT22;9196;49.194;12.526;2022-09-27T04:55:29;10.50;99.90
18141;DHT22;9196;49.194;12.526;2022-09-27T04:57:57;10.50;99.90
18141;DHT22;9196;49.194;12.526;2022-09-27T05:00:26;10.40;99.90
18141;DHT22;9196;49.194;12.526;2022-09-27T05:02:53;10.40;99.90
18141;DHT22;9196;49.194;12.526;2022-09-27T05:05:19;10.40;99.90
18141;DHT22;9196;49.194;12.526;2022-09-27T05:07:46;10.40;99.90
18141;DHT22;9196;49.194;12.526;2022-09-27T05:10:13;10.40;99.90
18141;DHT22;9196;49.194;12.526;2022-09-27T05:12:40;10.40;99.90
18141;DHT22;9196;49.194;12.526;2022-09-27T05:15:09;10.40;99.90
18141;DHT22;9196;49.194;12.526;2022-09-27T05:17:35;10.40;99.90
18141;DHT22;9196;49.194;12.526;2022-09-27T05:20:02;10.40;99.90
18141;DHT22;9196;49.194;12.526;2022-09-27T05:22:29;10.50;99.90
18141;DHT22;9196;49.194;12.526;2022-09-27T05:24:56;10.40;99.90
18141;DHT22;9196;49.194;12.526;2022-09-27T05:27:23;10.40;99.90
18141;DHT22;9196;49.194;12.526;2022-09-27T05:29:49;10.40;99.90
18141;DHT22;9196;49.194;12.526;2022-09-27T05:32:18;10.50;99.90
18141;DHT22;9196;49.194;12.526;2022-09-27T05:34:45;10.40;99.90
18141;DHT22;9196;49.194;12.526;2022-09-27T05:37:12;10.50;99.90
18141;DHT22;9196;49.194;12.526;2022-09-27T05:39:39;10.50;99.90
18141;DHT22;9196;49.194;12.526;2022-09-27T05:42:06;10.50;99.90
18141;DHT22;9196;49.194;12.526;2022-09-27T05:44:34;10.50;99.90
18141;DHT22;9196;49.194;12.526;2022-09-27T05:47:03;10.50;99.90
18141;DHT22;9196;49.194;12.526;2022-09-27T05:49:31;10.50;99.90
18141;DHT22;9196;49.194;12.526;2022-09-27T05:51:58;10.50;99.90
18141;DHT22;9196;49.194;12.526;2022-09-27T05:54:25;10.50;99.90
18141;DHT22;9196;49.194;12.526;2022-09-27T05:56:53;10.50;99.90
18141;DHT22;9196;49.194;12.526;2022-09-27T05:59:23;10.60;99.90
18141;DHT22;9196;49.194;12.526;2022-09-27T06:01:49;10.60;99.90
18141;DHT22;9196;49.194;12.526;2022-09-27T06:04:16;10.60;99.90
18141;DHT22;9196;49.194;12.526;2022-09-27T06:06:44;10.60;99.90
18141;DHT22;9196;49.194;12.526;2022-09-27T06:09:12;10.60;99.90
18141;DHT22;9196;49.194;12.526;2022-09-27T06:11:40;10.60;99.90
18141;DHT22;9196;49.194;12.526;2022-09-27T06:14:07;10.60;99.90
18141;DHT22;9196;49.194;12.526;2022-09-27T06:16:34;10.60;99.90
18141;DHT22;9196;49.194;12.526;2022-09-27T06:19:01;10.60;99.90
18141;DHT22;9196;49.194;12.526;2022-09-27T06:21:28;10.60;99.90
18141;DHT22;9196;49.194;12.526;2022-09-27T06:23:58;10.60;99.90
18141;DHT22;9196;49.194;12.526;2022-09-27T06:26:25;10.60;99.90
18141;DHT22;9196;49.194;12.526;2022-09-27T06:28:52;10.60;99.90
18141;DHT22;9196;49.194;12.526;2022-09-27T06:31:19;10.60;99.90
18141;DHT22;9196;49.194;12.526;2022-09-27T06:33:46;10.60;99.90
18141;DHT22;9196;49.194;12.526;2022-09-27T06:36:13;10.60;99.90
18141;DHT22;9196;49.194;12.526;2022-09-27T06:38:40;10.70;99.90
18141;DHT22;9196;49.194;12.526;2022-09-27T06:41:08;10.60;99.90
18141;DHT22;9196;49.194;12.526;2022-09-27T06:43:35;10.70;99.90
18141;DHT22;9196;49.194;12.526;2022-09-27T06:46:03;10.60;99.90
18141;DHT22;9196;49.194;12.526;2022-09-27T06:48:31;10.50;99.90
18141;DHT22;9196;49.194;12.526;2022-09-27T06:50:58;10.40;99.90
18141;DHT22;9196;49.194;12.526;2022-09-27T06:53:25;10.40;99.90
18141;DHT22;9196;49.194;12.526;2022-09-27T06:55:56;10.40;99.90
18141;DHT22;9196;49.194;12.526;2022-09-27T06:58:25;10.40;99.90
18141;DHT22;9196;49.194;12.526;2022-09-27T07:01:09;10.40;99.90
18141;DHT22;9196;49.194;12.526;2022-09-27T07:03:36;10.50;99.90
18141;DHT22;9196;49.194;12.526;2022-09-27T07:06:11;10.40;99.90
18141;DHT22;9196;49.194;12.526;2022-09-27T07:08:40;10.50;99.90
18141;DHT22;9196;49.194;12.526;2022-09-27T07:11:07;10.40;99.90
18141;DHT22;9196;49.194;12.526;2022-09-27T07:13:35;10.40;99.90
18141;DHT22;9196;49.194;12.526;2022-09-27T07:16:07;10.40;99.90
18141;DHT22;9196;49.194;12.526;2022-09-27T07:18:33;10.60;99.90
18141;DHT22;9196;49.194;12.526;2022-09-27T07:21:00;10.70;99.90
18141;DHT22;9196;49.194;12.526;2022-09-27T07:23:27;10.80;99.90
18141;DHT22;9196;49.194;12.526;2022-09-27T07:25:54;10.90;99.90
18141;DHT22;9196;49.194;12.526;2022-09-27T07:28:21;10.90;99.90
18141;DHT22;9196;49.194;12.526;2022-09-27T07:30:53;10.90;99.90
18141;DHT22;9196;49.194;12.526;2022-09-27T07:33:20;11.00;99.90
18141;DHT22;9196;49.194;12.526;2022-09-27T07:35:47;11.00;99.90
18141;DHT22;9196;49.194;12.526;2022-09-27T07:38:14;10.90;99.90
18141;DHT22;9196;49.194;12.526;2022-09-27T07:40:41;10.90;99.90
18141;DHT22;9196;49.194;12.526;2022-09-27T07:43:08;10.90;99.90
18141;DHT22;9196;49.194;12.526;2022-09-27T07:45:36;10.90;99.90
18141;DHT22;9196;49.194;12.526;2022-09-27T07:48:05;11.00;99.90
18141;DHT22;9196;49.194;12.526;2022-09-27T07:50:32;10.90;99.90
18141;DHT22;9196;49.194;12.526;2022-09-27T07:52:59;11.00;99.90
18141;DHT22;9196;49.194;12.526;2022-09-27T07:55:26;10.90;99.90
18141;DHT22;9196;49.194;12.526;2022-09-27T07:58:01;10.80;99.90
18141;DHT22;9196;49.194;12.526;2022-09-27T08:00:28;10.90;99.90
18141;DHT22;9196;49.194;12.526;2022-09-27T08:02:55;10.90;99.90
18141;DHT22;9196;49.194;12.526;2022-09-27T08:05:23;10.90;99.90
18141;DHT22;9196;49.194;12.526;2022-09-27T08:07:53;10.90;99.90
18141;DHT22;9196;49.194;12.526;2022-09-27T08:10:21;10.80;99.90
18141;DHT22;9196;49.194;12.526;2022-09-27T08:12:49;10.80;99.90
18141;DHT22;9196;49.194;12.526;2022-09-27T08:15:17;10.80;99.90
18141;DHT22;9196;49.194;12.526;2022-09-27T08:17:44;10.80;99.90
18141;DHT22;9196;49.194;12.526;2022-09-27T08:20:10;10.80;99.90
18141;DHT22;9196;49.194;12.526;2022-09-27T08:22:41;10.80;99.90
18141;DHT22;9196;49.194;12.526;2022-09-27T08:25:08;10.90;99.90
18141;DHT22;9196;49.194;12.526;2022-09-27T08:27:35;10.90;99.90
18141;DHT22;9196;49.194;12.526;2022-09-27T08:30:02;11.00;99.90
18141;DHT22;9196;49.194;12.526;2022-09-27T08:32:29;11.00;99.90
18141;DHT22;9196;49.194;12.526;2022-09-27T08:34:57;11.10;99.90
18141;DHT22;9196;49.194;12.526;2022-09-27T08:37:25;11.20;99.90
18141;DHT22;9196;49.194;12.526;2022-09-27T08:39:53;11.20;99.90
18141;DHT22;9196;49.194;12.526;2022-09-27T08:42:27;11.30;99.90
18141;DHT22;9196;49.194;12.526;2022-09-27T08:45:02;11.30;99.90
18141;DHT22;9196;49.194;12.526;2022-09-27T08:47:33;11.30;99.90
18141;DHT22;9196;49.194;12.526;2022-09-27T08:50:05;11.20;99.90
18141;DHT22;9196;49.194;12.526;2022-09-27T08:52:38;11.20;99.90
18141;DHT22;9196;49.194;12.526;2022-09-27T08:55:16;11.10;99.90
18141;DHT22;9196;49.194;12.526;2022-09-27T08:57:49;11.10;99.90
18141;DHT22;9196;49.194;12.526;2022-09-27T09:00:18;11.10;99.90
18141;DHT22;9196;49.194;12.526;2022-09-27T09:02:45;11.10;99.90
18141;DHT22;9196;49.194;12.526;2022-09-27T09:05:16;11.10;99.90
18141;DHT22;9196;49.194;12.526;2022-09-27T09:07:57;11.10;99.90
18141;DHT22;9196;49.194;12.526;2022-09-27T09:10:39;11.10;99.90
18141;DHT22;9196;49.194;12.526;2022-09-27T09:14:02;11.10;99.90
18141;DHT22;9196;49.194;12.526;2022-09-27T09:16:37;11.20;99.90
18141;DHT22;9196;49.194;12.526;2022-09-27T09:19:33;11.30;99.90
18141;DHT22;9196;49.194;12.526;2022-09-27T09:22:13;11.40;99.90
18141;DHT22;9196;49.194;12.526;2022-09-27T09:24:55;11.40;99.90
18141;DHT22;9196;49.194;12.526;2022-09-27T09:27:34;11.30;99.90
18141;DHT22;9196;49.194;12.526;2022-09-27T09:30:18;11.30;99.90
18141;DHT22;9196;49.194;12.526;2022-09-27T09:32:56;11.30;99.90
18141;DHT22;9196;49.194;12.526;2022-09-27T09:35:30;11.50;99.90
18141;DHT22;9196;49.194;12.526;2022-09-27T09:38:00;11.60;99.90
18141;DHT22;9196;49.194;12.526;2022-09-27T09:40:30;11.50;99.90
18141;DHT22;9196;49.194;12.526;2022-09-27T09:43:09;11.50;99.90
18141;DHT22;9196;49.194;12.526;2022-09-27T09:45:41;11.60;99.90
18141;DHT22;9196;49.194;12.526;2022-09-27T09:48:18;11.80;99.90
18141;DHT22;9196;49.194;12.526;2022-09-27T09:50:51;11.70;99.90
18141;DHT22;9196;49.194;12.526;2022-09-27T09:53:20;11.70;99.90
18141;DHT22;9196;49.194;12.526;2022-09-27T09:55:55;11.80;99.90
18141;DHT22;9196;49.194;12.526;2022-09-27T09:58:28;11.90;99.90
18141;DHT22;9196;49.194;12.526;2022-09-27T10:01:04;11.80;99.90
18141;DHT22;9196;49.194;12.526;2022-09-27T10:03:35;11.80;99.90
18141;DHT22;9196;49.194;12.526;2022-09-27T10:06:02;11.80;99.90
18141;DHT22;9196;49.194;12.526;2022-09-27T10:08:29;12.10;99.90
18141;DHT22;9196;49.194;12.526;2022-09-27T10:10:56;12.40;99.90
18141;DHT22;9196;49.194;12.526;2022-09-27T10:13:24;12.70;99.90
18141;DHT22;9196;49.194;12.526;2022-09-27T10:15:55;12.50;99.90
18141;DHT22;9196;49.194;12.526;2022-09-27T10:18:25;12.40;99.90
18141;DHT22;9196;49.194;12.526;2022-09-27T10:20:56;12.20;99.90
18141;DHT22;9196;49.194;12.526;2022-09-27T10:23:24;12.00;99.90
18141;DHT22;9196;49.194;12.526;2022-09-27T10:25:52;11.80;99.90
18141;DHT22;9196;49.194;12.526;2022-09-27T10:28:33;11.90;99.90
18141;DHT22;9196;49.194;12.526;2022-09-27T10:31:03;12.00;99.90
18141;DHT22;9196;49.194;12.526;2022-09-27T10:33:31;12.00;99.90
18141;DHT22;9196;49.194;12.526;2022-09-27T10:35:59;12.00;99.90
18141;DHT22;9196;49.194;12.526;2022-09-27T10:38:29;12.00;99.90
18141;DHT22;9196;49.194;12.526;2022-09-27T10:40:58;12.00;99.90
18141;DHT22;9196;49.194;12.526;2022-09-27T10:43:42;12.00;99.90
18141;DHT22;9196;49.194;12.526;2022-09-27T10:46:14;12.00;99.90
18141;DHT22;9196;49.194;12.526;2022-09-27T10:48:42;12.10;99.90
18141;DHT22;9196;49.194;12.526;2022-09-27T10:51:23;12.00;99.90
18141;DHT22;9196;49.194;12.526;2022-09-27T10:53:50;12.00;99.90
18141;DHT22;9196;49.194;12.526;2022-09-27T10:56:22;12.00;99.90
18141;DHT22;9196;49.194;12.526;2022-09-27T10:58:51;12.10;99.90
18141;DHT22;9196;49.194;12.526;2022-09-27T11:01:18;12.00;99.90
18141;DHT22;9196;49.194;12.526;2022-09-27T11:03:48;11.80;99.90
18141;DHT22;9196;49.194;12.526;2022-09-27T11:06:28;11.80;99.90
18141;DHT22;9196;49.194;12.526;2022-09-27T11:09:08;11.80;99.90
18141;DHT22;9196;49.194;12.526;2022-09-27T11:11:36;11.80;99.90
18141;DHT22;9196;49.194;12.526;2022-09-27T11:14:10;11.70;99.90
18141;DHT22;9196;49.194;12.526;2022-09-27T11:16:49;11.60;99.90
18141;DHT22;9196;49.194;12.526;2022-09-27T11:19:42;11.30;99.90
18141;DHT22;9196;49.194;12.526;2022-09-27T11:25:15;11.30;99.90
18141;DHT22;9196;49.194;12.526;2022-09-27T11:27:55;11.70;99.90
18141;DHT22;9196;49.194;12.526;2022-09-27T11:30:30;11.90;99.90
18141;DHT22;9196;49.194;12.526;2022-09-27T11:33:14;12.10;99.90
18141;DHT22;9196;49.194;12.526;2022-09-27T11:35:54;12.20;99.90
18141;DHT22;9196;49.194;12.526;2022-09-27T11:38:25;12.30;99.90
18141;DHT22;9196;49.194;12.526;2022-09-27T11:41:09;12.20;99.90
18141;DHT22;9196;49.194;12.526;2022-09-27T11:43:57;12.10;99.90
18141;DHT22;9196;49.194;12.526;2022-09-27T11:46:31;12.10;99.90
18141;DHT22;9196;49.194;12.526;2022-09-27T11:49:16;11.70;99.90
18141;DHT22;9196;49.194;12.526;2022-09-27T11:52:11;11.60;99.90
18141;DHT22;9196;49.194;12.526;2022-09-27T11:55:00;11.50;99.90
18141;DHT22;9196;49.194;12.526;2022-09-27T11:57:31;11.40;99.90
18141;DHT22;9196;49.194;12.526;2022-09-27T12:00:17;11.20;99.90
18141;DHT22;9196;49.194;12.526;2022-09-27T12:03:01;11.20;99.90
18141;DHT22;9196;49.194;12.526;2022-09-27T12:05:37;11.20;99.90
18141;DHT22;9196;49.194;12.526;2022-09-27T12:08:25;11.20;99.90
18141;DHT22;9196;49.194;12.526;2022-09-27T12:10:59;11.20;99.90
18141;DHT22;9196;49.194;12.526;2022-09-27T12:13:33;11.30;99.90
18141;DHT22;9196;49.194;12.526;2022-09-27T12:16:02;11.40;99.90
18141;DHT22;9196;49.194;12.526;2022-09-27T12:18:34;11.30;99.90
18141;DHT22;9196;49.194;12.526;2022-09-27T12:21:04;11.30;99.90
18141;DHT22;9196;49.194;12.526;2022-09-27T12:23:38;11.30;99.90
18141;DHT22;9196;49.194;12.526;2022-09-27T12:26:10;11.30;99.90
18141;DHT22;9196;49.194;12.526;2022-09-27T12:28:44;11.20;99.90
18141;DHT22;9196;49.194;12.526;2022-09-27T12:31:16;11.20;99.90
18141;DHT22;9196;49.194;12.526;2022-09-27T12:33:50;11.00;99.90
18141;DHT22;9196;49.194;12.526;2022-09-27T12:36:23;11.00;99.90
18141;DHT22;9196;49.194;12.526;2022-09-27T12:38:57;11.00;99.90
18141;DHT22;9196;49.194;12.526;2022-09-27T12:41:30;11.00;99.90
18141;DHT22;9196;49.194;12.526;2022-09-27T12:44:00;11.20;99.90
18141;DHT22;9196;49.194;12.526;2022-09-27T12:46:34;11.30;99.90
18141;DHT22;9196;49.194;12.526;2022-09-27T12:49:05;11.50;99.90
18141;DHT22;9196;49.194;12.526;2022-09-27T12:51:38;11.50;99.90
18141;DHT22;9196;49.194;12.526;2022-09-27T12:54:25;11.60;99.90
18141;DHT22;9196;49.194;12.526;2022-09-27T12:56:59;11.70;99.90
18141;DHT22;9196;49.194;12.526;2022-09-27T12:59:55;11.70;99.90
18141;DHT22;9196;49.194;12.526;2022-09-27T13:02:58;11.60;99.90
18141;DHT22;9196;49.194;12.526;2022-09-27T13:08:36;11.40;99.90
18141;DHT22;9196;49.194;12.526;2022-09-27T13:11:14;11.40;99.90
18141;DHT22;9196;49.194;12.526;2022-09-27T13:13:42;11.30;99.90
18141;DHT22;9196;49.194;12.526;2022-09-27T13:16:09;11.40;99.90
18141;DHT22;9196;49.194;12.526;2022-09-27T13:18:58;11.50;99.90
18141;DHT22;9196;49.194;12.526;2022-09-27T13:21:55;11.50;99.90
18141;DHT22;9196;49.194;12.526;2022-09-27T13:24:39;11.50;99.90
18141;DHT22;9196;49.194;12.526;2022-09-27T13:27:40;11.50;99.90
18141;DHT22;9196;49.194;12.526;2022-09-27T13:33:43;11.60;99.90
18141;DHT22;9196;49.194;12.526;2022-09-27T13:36:29;11.60;99.90
18141;DHT22;9196;49.194;12.526;2022-09-27T13:39:17;11.80;99.90
18141;DHT22;9196;49.194;12.526;2022-09-27T13:41:59;11.80;99.90
18141;DHT22;9196;49.194;12.526;2022-09-27T13:44:35;11.80;99.90
18141;DHT22;9196;49.194;12.526;2022-09-27T13:47:17;11.80;99.90
18141;DHT22;9196;49.194;12.526;2022-09-27T13:49:54;11.80;99.90
18141;DHT22;9196;49.194;12.526;2022-09-27T13:52:25;11.50;99.90
18141;DHT22;9196;49.194;12.526;2022-09-27T13:54:57;11.40;99.90
18141;DHT22;9196;49.194;12.526;2022-09-27T13:57:50;11.40;99.90
18141;DHT22;9196;49.194;12.526;2022-09-27T14:00:21;11.20;99.90
18141;DHT22;9196;49.194;12.526;2022-09-27T14:02:57;11.20;99.90
18141;DHT22;9196;49.194;12.526;2022-09-27T14:05:29;11.20;99.90
18141;DHT22;9196;49.194;12.526;2022-09-27T14:07:58;11.40;99.90
18141;DHT22;9196;49.194;12.526;2022-09-27T14:10:28;11.70;99.90
18141;DHT22;9196;49.194;12.526;2022-09-27T14:12:58;12.10;99.90
18141;DHT22;9196;49.194;12.526;2022-09-27T14:15:28;12.30;99.90
18141;DHT22;9196;49.194;12.526;2022-09-27T14:17:56;12.50;99.90
18141;DHT22;9196;49.194;12.526;2022-09-27T14:20:37;12.50;99.90
18141;DHT22;9196;49.194;12.526;2022-09-27T14:23:14;12.40;99.90
18141;DHT22;9196;49.194;12.526;2022-09-27T14:25:45;12.30;99.90
18141;DHT22;9196;49.194;12.526;2022-09-27T14:28:24;12.40;99.90
18141;DHT22;9196;49.194;12.526;2022-09-27T14:31:13;12.20;99.90
18141;DHT22;9196;49.194;12.526;2022-09-27T14:33:42;12.10;99.90
18141;DHT22;9196;49.194;12.526;2022-09-27T14:36:22;12.10;99.90
18141;DHT22;9196;49.194;12.526;2022-09-27T14:39:14;12.10;99.90
18141;DHT22;9196;49.194;12.526;2022-09-27T14:41:43;12.10;99.90
18141;DHT22;9196;49.194;12.526;2022-09-27T14:44:14;12.00;99.90
18141;DHT22;9196;49.194;12.526;2022-09-27T14:46:41;11.80;99.90
18141;DHT22;9196;49.194;12.526;2022-09-27T14:49:18;11.60;99.90
18141;DHT22;9196;49.194;12.526;2022-09-27T14:51:50;11.60;99.90
18141;DHT22;9196;49.194;12.526;2022-09-27T14:54:20;11.80;99.90
18141;DHT22;9196;49.194;12.526;2022-09-27T14:56:49;12.30;99.90
18141;DHT22;9196;49.194;12.526;2022-09-27T14:59:19;12.60;99.90
18141;DHT22;9196;49.194;12.526;2022-09-27T15:01:52;12.80;99.90
18141;DHT22;9196;49.194;12.526;2022-09-27T15:04:20;13.20;99.90
18141;DHT22;9196;49.194;12.526;2022-09-27T15:06:48;13.40;99.90
18141;DHT22;9196;49.194;12.526;2022-09-27T15:09:16;13.40;99.90
18141;DHT22;9196;49.194;12.526;2022-09-27T15:11:46;13.20;99.90
18141;DHT22;9196;49.194;12.526;2022-09-27T15:14:18;13.10;99.90
18141;DHT22;9196;49.194;12.526;2022-09-27T15:16:47;13.00;99.90
18141;DHT22;9196;49.194;12.526;2022-09-27T15:19:16;12.90;99.90
18141;DHT22;9196;49.194;12.526;2022-09-27T15:21:44;12.80;99.90
18141;DHT22;9196;49.194;12.526;2022-09-27T15:24:35;12.70;99.90
18141;DHT22;9196;49.194;12.526;2022-09-27T15:27:03;12.60;99.90
18141;DHT22;9196;49.194;12.526;2022-09-27T15:29:33;12.40;99.90
18141;DHT22;9196;49.194;12.526;2022-09-27T15:32:02;12.40;99.90
18141;DHT22;9196;49.194;12.526;2022-09-27T15:34:30;12.10;99.90
18141;DHT22;9196;49.194;12.526;2022-09-27T15:36:59;12.00;99.90
18141;DHT22;9196;49.194;12.526;2022-09-27T15:39:29;12.00;99.90
18141;DHT22;9196;49.194;12.526;2022-09-27T15:42:04;11.90;99.90
18141;DHT22;9196;49.194;12.526;2022-09-27T15:44:44;11.70;99.90
18141;DHT22;9196;49.194;12.526;2022-09-27T15:47:48;11.60;99.90
18141;DHT22;9196;49.194;12.526;2022-09-27T15:50:35;11.40;99.90
18141;DHT22;9196;49.194;12.526;2022-09-27T15:53:03;11.40;99.90
18141;DHT22;9196;49.194;12.526;2022-09-27T15:55:33;11.30;99.90
18141;DHT22;9196;49.194;12.526;2022-09-27T15:58:02;11.30;99.90
18141;DHT22;9196;49.194;12.526;2022-09-27T16:00:31;11.20;99.90
18141;DHT22;9196;49.194;12.526;2022-09-27T16:02:59;11.10;99.90
18141;DHT22;9196;49.194;12.526;2022-09-27T16:05:26;11.10;99.90
18141;DHT22;9196;49.194;12.526;2022-09-27T16:07:54;11.00;99.90
18141;DHT22;9196;49.194;12.526;2022-09-27T16:10:26;11.00;99.90
18141;DHT22;9196;49.194;12.526;2022-09-27T16:12:54;10.90;99.90